Time;durP1;ratioP1;P1;durP2;ratioP2;P2;SDS_P1;SDS_P2;PMS_P1;PMS_P2;Temp;Humidity;BMP_temperature;BMP_pressure;BME280_temperature;BME280_humidity;BME280_pressure;Samples;Min_cycle;Max_cycle;Signal;HPM_P1;HPM_P2
2023/12/22 00:02:16;;;;;;;;;;;11.90;95.00;;;;;;5096736;28;20371;-81
2023/12/22 00:04:41;;;;;;;;;;;12.00;95.00;;;;;;5096403;28;19915;-80
2023/12/22 00:07:07;;;;;;;;;;;11.90;95.00;;;;;;5096187;28;20309;-80
2023/12/22 00:09:33;;;;;;;;;;;11.90;94.90;;;;;;5096165;28;19912;-81
2023/12/22 00:11:58;;;;;;;;;;;11.90;94.90;;;;;;5096398;28;19937;-81
2023/12/22 00:14:24;;;;;;;;;;;11.90;94.90;;;;;;5096071;28;20020;-81
2023/12/22 00:16:49;;;;;;;;;;;11.80;94.90;;;;;;5079076;28;20367;-80
2023/12/22 00:19:15;;;;;;;;;;;11.80;94.90;;;;;;5096216;28;19943;-80
2023/12/22 00:21:40;;;;;;;;;;;11.70;94.90;;;;;;5114127;28;19907;-81
2023/12/22 00:24:06;;;;;;;;;;;11.70;94.90;;;;;;5114360;28;19903;-80
2023/12/22 00:26:32;;;;;;;;;;;11.70;94.90;;;;;;5075434;28;20430;-80
2023/12/22 00:28:57;;;;;;;;;;;11.70;94.90;;;;;;5092649;28;19912;-80
2023/12/22 00:31:23;;;;;;;;;;;11.60;94.90;;;;;;5075674;28;20268;-80
2023/12/22 00:33:49;;;;;;;;;;;11.50;94.80;;;;;;5092232;28;19912;-80
2023/12/22 00:36:15;;;;;;;;;;;11.50;94.90;;;;;;5093618;28;19912;-81
2023/12/22 00:38:40;;;;;;;;;;;11.50;94.90;;;;;;5092409;28;19908;-81
2023/12/22 00:41:06;;;;;;;;;;;11.40;94.90;;;;;;5093935;28;19929;-81
2023/12/22 00:43:31;;;;;;;;;;;11.40;94.90;;;;;;5075235;28;20007;-81
2023/12/22 00:45:57;;;;;;;;;;;11.40;94.90;;;;;;5074872;28;20391;-79
2023/12/22 00:48:23;;;;;;;;;;;11.40;95.00;;;;;;5074768;28;20283;-80
2023/12/22 00:50:48;;;;;;;;;;;11.40;94.90;;;;;;5093141;28;20397;-80
2023/12/22 00:53:14;;;;;;;;;;;11.40;94.90;;;;;;5092213;28;20178;-81
2023/12/22 00:55:39;;;;;;;;;;;11.40;94.90;;;;;;5092136;28;19915;-81
2023/12/22 00:58:05;;;;;;;;;;;11.40;94.90;;;;;;5075108;28;19908;-81
2023/12/22 01:00:30;;;;;;;;;;;11.40;94.90;;;;;;5091441;28;19982;-81
2023/12/22 01:02:56;;;;;;;;;;;11.40;95.00;;;;;;5074915;28;20371;-77
2023/12/22 01:05:22;;;;;;;;;;;11.40;95.00;;;;;;5091827;28;19912;-81
2023/12/22 01:07:47;;;;;;;;;;;11.40;95.00;;;;;;5091983;28;19908;-80
2023/12/22 01:10:13;;;;;;;;;;;11.50;95.00;;;;;;5091934;28;19955;-80
2023/12/22 01:12:38;;;;;;;;;;;11.40;95.00;;;;;;5091870;28;19908;-81
2023/12/22 01:15:04;;;;;;;;;;;11.50;95.00;;;;;;5091633;28;20379;-80
2023/12/22 01:17:30;;;;;;;;;;;11.50;95.00;;;;;;5074477;28;20321;-80
2023/12/22 01:19:55;;;;;;;;;;;11.60;95.00;;;;;;5091603;28;20334;-80
2023/12/22 01:22:22;;;;;;;;;;;11.60;95.00;;;;;;5074631;28;19908;-80
2023/12/22 01:24:48;;;;;;;;;;;11.60;95.00;;;;;;5092854;28;19908;-80
2023/12/22 01:27:14;;;;;;;;;;;11.60;95.00;;;;;;5103439;28;19915;-80
2023/12/22 01:29:39;;;;;;;;;;;11.70;95.00;;;;;;5112975;28;20256;-80
2023/12/22 01:32:05;;;;;;;;;;;11.70;95.00;;;;;;5094794;28;19911;-80
2023/12/22 01:34:31;;;;;;;;;;;11.70;95.00;;;;;;5094618;28;19907;-80
2023/12/22 01:36:56;;;;;;;;;;;11.70;95.00;;;;;;5094588;28;20390;-80
2023/12/22 01:39:22;;;;;;;;;;;11.70;95.00;;;;;;5094637;28;19911;-80
2023/12/22 01:41:47;;;;;;;;;;;11.60;95.00;;;;;;5094440;28;20482;-80
2023/12/22 01:44:13;;;;;;;;;;;11.70;95.00;;;;;;5094458;28;19903;-80
2023/12/22 01:46:39;;;;;;;;;;;11.60;94.90;;;;;;5112632;28;19915;-80
2023/12/22 01:49:05;;;;;;;;;;;11.60;94.90;;;;;;5112749;28;19908;-79
2023/12/22 01:51:31;;;;;;;;;;;11.60;94.90;;;;;;5094349;28;19904;-80
2023/12/22 01:53:57;;;;;;;;;;;11.50;94.90;;;;;;5112729;28;20010;-80
2023/12/22 01:56:23;;;;;;;;;;;11.50;94.90;;;;;;5077542;28;20006;-80
2023/12/22 01:58:50;;;;;;;;;;;11.50;95.00;;;;;;5112479;28;19919;-80
2023/12/22 02:01:16;;;;;;;;;;;11.50;95.00;;;;;;5094140;28;19904;-80
2023/12/22 02:03:42;;;;;;;;;;;11.60;95.00;;;;;;5094377;28;20027;-80
2023/12/22 02:06:07;;;;;;;;;;;11.50;95.20;;;;;;5093946;28;19958;-80
2023/12/22 02:08:33;;;;;;;;;;;11.60;95.00;;;;;;5112439;28;19904;-80
2023/12/22 02:10:59;;;;;;;;;;;11.60;95.00;;;;;;5093907;28;19968;-81
2023/12/22 02:13:25;;;;;;;;;;;11.70;95.00;;;;;;5093346;28;20017;-81
2023/12/22 02:15:55;;;;;;;;;;;11.70;95.00;;;;;;5112205;28;19908;-81
2023/12/22 02:18:26;;;;;;;;;;;11.60;94.90;;;;;;5112273;28;20280;-80
2023/12/22 02:20:52;;;;;;;;;;;11.60;94.90;;;;;;5093873;28;19987;-80
2023/12/22 02:23:18;;;;;;;;;;;11.60;94.90;;;;;;5094113;28;19908;-80
2023/12/22 02:25:43;;;;;;;;;;;11.50;94.90;;;;;;5076850;28;19915;-81
2023/12/22 02:28:15;;;;;;;;;;;11.50;94.90;;;;;;5111911;28;19970;-80
2023/12/22 02:30:49;;;;;;;;;;;11.50;95.00;;;;;;5093773;28;20174;-80
2023/12/22 02:33:15;;;;;;;;;;;11.50;95.00;;;;;;5093747;28;19904;-81
2023/12/22 02:35:42;;;;;;;;;;;11.60;95.10;;;;;;5111935;28;20277;-80
2023/12/22 02:38:08;;;;;;;;;;;11.60;95.10;;;;;;5112421;28;19903;-80
2023/12/22 02:40:34;;;;;;;;;;;11.70;95.10;;;;;;5094028;28;19961;-81
2023/12/22 02:43:00;;;;;;;;;;;11.70;95.10;;;;;;5093591;28;19904;-81
2023/12/22 02:45:26;;;;;;;;;;;11.80;95.10;;;;;;5093522;28;20310;-81
2023/12/22 02:47:52;;;;;;;;;;;11.80;95.10;;;;;;5093601;28;19918;-81
2023/12/22 02:50:17;;;;;;;;;;;11.80;95.10;;;;;;5076810;28;19908;-80
2023/12/22 02:52:43;;;;;;;;;;;11.80;95.00;;;;;;5076745;28;19908;-80
2023/12/22 02:55:08;;;;;;;;;;;11.80;95.00;;;;;;5093287;28;19915;-81
2023/12/22 02:57:34;;;;;;;;;;;11.80;95.10;;;;;;5093634;28;19908;-81
2023/12/22 03:00:00;;;;;;;;;;;11.80;95.10;;;;;;5076722;28;20284;-81
2023/12/22 03:02:25;;;;;;;;;;;11.80;95.00;;;;;;5111791;28;20473;-80
2023/12/22 03:04:51;;;;;;;;;;;11.80;95.00;;;;;;5076639;28;19947;-81
2023/12/22 03:07:16;;;;;;;;;;;11.70;94.90;;;;;;5093386;28;19916;-80
2023/12/22 03:09:42;;;;;;;;;;;11.60;94.90;;;;;;5076539;28;19912;-81
2023/12/22 03:12:08;;;;;;;;;;;11.50;94.80;;;;;;5076546;28;19914;-80
2023/12/22 03:14:34;;;;;;;;;;;11.50;94.90;;;;;;5093254;28;19904;-80
2023/12/22 03:17:00;;;;;;;;;;;11.50;95.00;;;;;;5111530;28;20007;-81
2023/12/22 03:19:25;;;;;;;;;;;11.50;95.00;;;;;;5093483;28;20335;-80
2023/12/22 03:21:51;;;;;;;;;;;11.40;94.90;;;;;;5076558;28;19908;-81
2023/12/22 03:24:19;;;;;;;;;;;11.40;94.90;;;;;;5112830;28;20348;-80
2023/12/22 03:26:45;;;;;;;;;;;11.40;94.90;;;;;;5097036;28;19915;-80
2023/12/22 03:29:10;;;;;;;;;;;11.30;94.90;;;;;;5080251;28;20256;-81
2023/12/22 03:31:36;;;;;;;;;;;11.30;94.90;;;;;;5097203;28;20283;-81
2023/12/22 03:34:01;;;;;;;;;;;11.20;94.90;;;;;;5080081;28;20010;-81
2023/12/22 03:36:27;;;;;;;;;;;11.20;94.90;;;;;;5097025;28;19908;-81
2023/12/22 03:38:52;;;;;;;;;;;11.20;94.90;;;;;;5080044;28;20014;-80
2023/12/22 03:41:18;;;;;;;;;;;11.20;95.00;;;;;;5080041;28;19914;-80
2023/12/22 03:43:43;;;;;;;;;;;11.30;95.00;;;;;;5079906;28;19915;-80
2023/12/22 03:46:09;;;;;;;;;;;11.30;95.00;;;;;;5096794;28;20359;-80
2023/12/22 03:48:34;;;;;;;;;;;11.30;95.00;;;;;;5079841;28;20370;-81
2023/12/22 03:51:00;;;;;;;;;;;11.40;95.10;;;;;;5096950;28;20498;-80
2023/12/22 03:53:25;;;;;;;;;;;11.40;95.00;;;;;;5079765;28;19907;-80
2023/12/22 03:55:51;;;;;;;;;;;11.50;95.10;;;;;;5114944;28;19907;-80
2023/12/22 03:58:17;;;;;;;;;;;11.50;95.00;;;;;;5079666;28;19912;-80
2023/12/22 04:00:42;;;;;;;;;;;11.50;95.00;;;;;;5114930;28;19908;-80
2023/12/22 04:03:08;;;;;;;;;;;11.60;95.10;;;;;;5096559;28;19907;-80
2023/12/22 04:05:33;;;;;;;;;;;11.60;95.10;;;;;;5096063;28;20356;-80
2023/12/22 04:07:59;;;;;;;;;;;11.60;95.10;;;;;;5079350;28;20282;-80
2023/12/22 04:10:24;;;;;;;;;;;11.60;95.10;;;;;;5096258;28;19908;-81
2023/12/22 04:12:50;;;;;;;;;;;11.60;95.10;;;;;;5114954;28;19907;-80
2023/12/22 04:15:15;;;;;;;;;;;11.70;95.10;;;;;;5079036;28;20003;-80
2023/12/22 04:17:41;;;;;;;;;;;11.70;95.10;;;;;;5096150;28;19914;-80
2023/12/22 04:20:07;;;;;;;;;;;11.60;95.00;;;;;;5079506;28;20060;-81
2023/12/22 04:22:33;;;;;;;;;;;11.60;94.90;;;;;;5114327;28;19908;-80
2023/12/22 04:24:58;;;;;;;;;;;11.50;94.90;;;;;;5114451;28;20364;-81
2023/12/22 04:27:24;;;;;;;;;;;11.50;94.90;;;;;;5095748;28;20006;-81
2023/12/22 04:29:49;;;;;;;;;;;11.40;94.80;;;;;;5095913;28;19958;-81
2023/12/22 04:32:15;;;;;;;;;;;11.30;94.80;;;;;;5095969;28;19915;-81
2023/12/22 04:34:41;;;;;;;;;;;11.20;94.90;;;;;;5095985;28;19943;-81
2023/12/22 04:37:06;;;;;;;;;;;11.20;95.00;;;;;;5078065;28;20359;-81
2023/12/22 04:39:32;;;;;;;;;;;11.20;95.10;;;;;;5078764;28;20367;-81
2023/12/22 04:41:57;;;;;;;;;;;11.20;95.10;;;;;;5113988;28;19910;-80
2023/12/22 04:44:23;;;;;;;;;;;11.30;95.10;;;;;;5114083;28;19907;-80
2023/12/22 04:46:49;;;;;;;;;;;11.40;95.10;;;;;;5095605;28;20003;-81
2023/12/22 04:49:14;;;;;;;;;;;11.40;95.10;;;;;;5095628;28;20362;-80
2023/12/22 04:51:40;;;;;;;;;;;11.50;95.10;;;;;;5095480;28;20367;-80
2023/12/22 04:54:05;;;;;;;;;;;11.50;95.10;;;;;;5113764;28;20010;-80
2023/12/22 04:56:32;;;;;;;;;;;11.50;95.10;;;;;;5078544;28;19911;-80
2023/12/22 04:58:57;;;;;;;;;;;11.50;95.10;;;;;;5095273;28;19908;-81
2023/12/22 05:01:23;;;;;;;;;;;11.50;95.10;;;;;;5078009;28;20304;-80
2023/12/22 05:03:49;;;;;;;;;;;11.50;95.00;;;;;;5078260;28;19912;-80
2023/12/22 05:06:14;;;;;;;;;;;11.50;95.10;;;;;;5095007;28;20349;-80
2023/12/22 05:08:40;;;;;;;;;;;11.50;95.10;;;;;;5095358;28;19914;-80
2023/12/22 05:11:05;;;;;;;;;;;11.50;95.10;;;;;;5079082;28;19915;-79
2023/12/22 05:13:31;;;;;;;;;;;11.50;95.10;;;;;;5095223;28;19961;-79
2023/12/22 05:15:56;;;;;;;;;;;11.60;95.10;;;;;;5095339;28;19907;-79
2023/12/22 05:18:22;;;;;;;;;;;11.60;95.10;;;;;;5095119;28;20209;-80
2023/12/22 05:20:47;;;;;;;;;;;11.60;95.00;;;;;;5113288;28;19911;-79
2023/12/22 05:23:13;;;;;;;;;;;11.50;94.90;;;;;;5113754;28;19915;-78
2023/12/22 05:25:40;;;;;;;;;;;11.50;95.00;;;;;;5078041;28;19908;-80
2023/12/22 05:28:06;;;;;;;;;;;11.40;95.00;;;;;;5095063;28;19996;-80
2023/12/22 05:30:31;;;;;;;;;;;11.40;95.00;;;;;;5094800;28;19981;-80
2023/12/22 05:32:57;;;;;;;;;;;11.40;95.00;;;;;;5094929;28;19927;-79
2023/12/22 05:35:23;;;;;;;;;;;11.40;94.80;;;;;;5112975;28;19903;-79
2023/12/22 05:37:48;;;;;;;;;;;11.30;94.80;;;;;;5077886;28;19934;-79
2023/12/22 05:40:14;;;;;;;;;;;11.10;94.70;;;;;;5113200;28;19953;-79
2023/12/22 05:42:40;;;;;;;;;;;11.00;94.70;;;;;;5094586;28;19911;-80
2023/12/22 05:45:06;;;;;;;;;;;10.90;94.70;;;;;;5077560;28;20321;-80
2023/12/22 05:47:32;;;;;;;;;;;10.90;94.80;;;;;;5094462;28;20019;-79
2023/12/22 05:49:58;;;;;;;;;;;10.80;94.90;;;;;;5094298;28;20341;-79
2023/12/22 05:52:23;;;;;;;;;;;10.80;94.90;;;;;;5077395;28;20364;-80
2023/12/22 05:54:49;;;;;;;;;;;10.80;94.90;;;;;;5094778;28;19908;-79
2023/12/22 05:57:15;;;;;;;;;;;10.80;94.90;;;;;;5077334;28;19908;-79
2023/12/22 05:59:40;;;;;;;;;;;10.80;94.90;;;;;;5077278;28;20607;-79
2023/12/22 06:02:06;;;;;;;;;;;10.80;94.90;;;;;;5112399;28;20003;-79
2023/12/22 06:04:31;;;;;;;;;;;10.80;95.00;;;;;;5093901;28;19911;-79
2023/12/22 06:06:57;;;;;;;;;;;10.80;95.00;;;;;;5077057;28;19953;-79
2023/12/22 06:09:22;;;;;;;;;;;10.80;95.00;;;;;;5094357;28;19908;-79
2023/12/22 06:11:48;;;;;;;;;;;10.80;95.00;;;;;;5112216;28;19907;-79
2023/12/22 06:14:14;;;;;;;;;;;10.90;95.00;;;;;;5093908;28;19914;-79
2023/12/22 06:16:40;;;;;;;;;;;10.90;95.00;;;;;;5093702;28;19956;-79
2023/12/22 06:19:05;;;;;;;;;;;10.90;95.00;;;;;;5094030;28;19904;-80
2023/12/22 06:21:31;;;;;;;;;;;11.00;95.00;;;;;;5093721;28;20263;-79
2023/12/22 06:23:57;;;;;;;;;;;10.90;95.00;;;;;;5111993;28;20351;-80
2023/12/22 06:26:23;;;;;;;;;;;11.00;95.00;;;;;;5076635;28;19923;-79
2023/12/22 06:28:49;;;;;;;;;;;11.00;95.00;;;;;;5112089;28;20018;-79
2023/12/22 06:31:18;;;;;;;;;;;11.00;95.00;;;;;;5093648;28;19998;-79
2023/12/22 06:33:46;;;;;;;;;;;11.00;95.00;;;;;;5112066;28;19919;-79
2023/12/22 06:36:21;;;;;;;;;;;11.00;95.00;;;;;;5093295;28;19916;-79
2023/12/22 06:38:47;;;;;;;;;;;11.10;95.00;;;;;;5111943;28;19910;-80
2023/12/22 06:41:23;;;;;;;;;;;11.10;95.00;;;;;;5076945;28;19998;-79
2023/12/22 06:43:48;;;;;;;;;;;11.10;95.00;;;;;;5076583;28;19965;-79
2023/12/22 06:46:15;;;;;;;;;;;11.10;95.00;;;;;;5093341;28;20359;-79
2023/12/22 06:48:41;;;;;;;;;;;11.10;95.00;;;;;;5093529;28;19953;-80
2023/12/22 06:51:06;;;;;;;;;;;11.10;95.00;;;;;;5093729;28;19908;-80
2023/12/22 06:53:32;;;;;;;;;;;11.10;95.00;;;;;;5093655;28;19911;-79
2023/12/22 06:55:57;;;;;;;;;;;11.20;95.10;;;;;;5093507;28;19908;-80
2023/12/22 06:58:25;;;;;;;;;;;11.20;95.00;;;;;;5076519;28;19912;-79
2023/12/22 07:00:51;;;;;;;;;;;11.10;95.00;;;;;;5097588;28;19999;-79
2023/12/22 07:03:19;;;;;;;;;;;11.10;94.90;;;;;;5080582;28;19998;-78
2023/12/22 07:05:44;;;;;;;;;;;11.10;95.00;;;;;;5116426;28;19939;-79
2023/12/22 07:08:10;;;;;;;;;;;11.10;95.00;;;;;;5119859;28;19949;-79
2023/12/22 07:10:35;;;;;;;;;;;11.20;95.00;;;;;;5098967;28;19919;-79
2023/12/22 07:13:01;;;;;;;;;;;11.20;95.10;;;;;;5080498;28;19908;-79
2023/12/22 07:15:28;;;;;;;;;;;11.20;95.00;;;;;;5097224;28;20375;-79
2023/12/22 07:17:53;;;;;;;;;;;11.20;95.00;;;;;;5080551;28;20264;-79
2023/12/22 07:20:19;;;;;;;;;;;11.20;95.00;;;;;;5115746;28;19911;-79
2023/12/22 07:22:45;;;;;;;;;;;11.20;95.00;;;;;;5115479;28;19928;-79
2023/12/22 07:25:11;;;;;;;;;;;11.20;95.00;;;;;;5097315;28;20002;-79
2023/12/22 07:27:36;;;;;;;;;;;11.20;95.00;;;;;;5081100;28;19920;-80
2023/12/22 07:30:03;;;;;;;;;;;11.10;94.90;;;;;;5080124;28;20120;-81
2023/12/22 07:32:29;;;;;;;;;;;11.10;94.90;;;;;;5115334;28;19912;-80
2023/12/22 07:34:55;;;;;;;;;;;11.10;95.00;;;;;;5096796;28;19911;-81
2023/12/22 07:37:20;;;;;;;;;;;11.10;94.90;;;;;;5114835;28;19948;-80
2023/12/22 07:39:46;;;;;;;;;;;11.10;95.00;;;;;;5097009;28;19994;-80
2023/12/22 07:42:12;;;;;;;;;;;11.10;95.00;;;;;;5080465;28;20313;-79
2023/12/22 07:44:37;;;;;;;;;;;11.10;95.00;;;;;;5096753;28;19992;-80
2023/12/22 07:47:03;;;;;;;;;;;11.10;95.00;;;;;;5096151;28;19915;-81
2023/12/22 07:49:29;;;;;;;;;;;11.10;95.00;;;;;;5096798;28;19951;-80
2023/12/22 07:51:54;;;;;;;;;;;11.20;95.00;;;;;;5079713;28;20275;-80
2023/12/22 07:54:20;;;;;;;;;;;11.20;95.00;;;;;;5096161;28;20321;-80
2023/12/22 07:56:45;;;;;;;;;;;11.20;95.00;;;;;;5096132;28;19907;-79
2023/12/22 07:59:11;;;;;;;;;;;11.20;95.00;;;;;;5096406;28;20090;-79
2023/12/22 08:01:36;;;;;;;;;;;11.20;95.00;;;;;;5114609;28;19961;-79
2023/12/22 08:04:02;;;;;;;;;;;11.20;95.00;;;;;;5096500;28;19947;-79
2023/12/22 08:06:28;;;;;;;;;;;11.20;95.00;;;;;;5079241;28;19954;-80
2023/12/22 08:08:54;;;;;;;;;;;11.20;95.00;;;;;;5079327;28;20006;-79
2023/12/22 08:11:20;;;;;;;;;;;11.20;95.00;;;;;;5094653;28;19912;-79
2023/12/22 08:13:45;;;;;;;;;;;11.20;95.00;;;;;;5079156;28;19952;-79
2023/12/22 08:16:11;;;;;;;;;;;11.10;94.90;;;;;;5078772;28;19972;-79
2023/12/22 08:18:36;;;;;;;;;;;11.10;94.90;;;;;;5096187;28;19985;-79
2023/12/22 08:21:02;;;;;;;;;;;11.10;95.00;;;;;;5079188;28;19907;-80
2023/12/22 08:23:28;;;;;;;;;;;11.10;95.00;;;;;;5079247;28;19911;-80
2023/12/22 08:25:54;;;;;;;;;;;11.10;95.00;;;;;;5095619;28;20045;-79
2023/12/22 08:28:20;;;;;;;;;;;11.10;95.10;;;;;;5095995;28;20026;-80
2023/12/22 08:30:45;;;;;;;;;;;11.10;95.00;;;;;;5114216;28;19908;-79
2023/12/22 08:33:11;;;;;;;;;;;11.20;95.00;;;;;;5095719;28;20006;-80
2023/12/22 08:35:37;;;;;;;;;;;11.20;95.10;;;;;;5113812;28;20420;-79
2023/12/22 08:38:02;;;;;;;;;;;11.20;95.00;;;;;;5096569;28;19963;-80
2023/12/22 08:40:28;;;;;;;;;;;11.20;95.00;;;;;;5078813;28;19912;-79
2023/12/22 08:43:00;;;;;;;;;;;11.20;95.00;;;;;;5078630;28;19914;-80
2023/12/22 08:45:28;;;;;;;;;;;11.30;95.00;;;;;;5113470;28;19946;-79
2023/12/22 08:47:54;;;;;;;;;;;11.30;95.00;;;;;;5113852;28;19947;-79
2023/12/22 08:50:20;;;;;;;;;;;11.30;95.00;;;;;;5113711;28;19908;-79
2023/12/22 08:52:45;;;;;;;;;;;11.30;95.00;;;;;;5078246;28;19915;-79
2023/12/22 08:55:11;;;;;;;;;;;11.30;95.00;;;;;;5096341;28;19903;-79
2023/12/22 08:57:36;;;;;;;;;;;11.30;95.00;;;;;;5078208;28;20257;-79
2023/12/22 09:00:03;;;;;;;;;;;11.30;95.00;;;;;;5078007;28;19912;-79
2023/12/22 09:02:29;;;;;;;;;;;11.30;95.00;;;;;;5078414;28;20350;-76
2023/12/22 09:04:54;;;;;;;;;;;11.30;95.00;;;;;;5094014;28;20010;-77
2023/12/22 09:07:22;;;;;;;;;;;11.30;95.00;;;;;;5094262;28;20371;-76
2023/12/22 09:09:47;;;;;;;;;;;11.30;95.00;;;;;;5106966;28;19916;-75
2023/12/22 09:12:13;;;;;;;;;;;11.30;95.00;;;;;;5096053;28;19908;-76
2023/12/22 09:14:39;;;;;;;;;;;11.30;95.00;;;;;;5095494;28;20045;-75
2023/12/22 09:17:04;;;;;;;;;;;11.30;95.00;;;;;;5095121;28;19916;-75
2023/12/22 09:19:32;;;;;;;;;;;11.30;95.00;;;;;;5095712;28;19918;-75
2023/12/22 09:21:57;;;;;;;;;;;11.30;95.00;;;;;;5114031;28;20282;-75
2023/12/22 09:24:23;;;;;;;;;;;11.30;95.00;;;;;;5113897;28;19908;-75
2023/12/22 09:26:50;;;;;;;;;;;11.30;95.00;;;;;;5095122;28;19927;-75
2023/12/22 09:29:16;;;;;;;;;;;11.40;95.00;;;;;;5106749;28;20518;-75
2023/12/22 09:31:42;;;;;;;;;;;11.40;95.00;;;;;;5088492;28;20057;-75
2023/12/22 09:34:07;;;;;;;;;;;11.40;95.00;;;;;;5095346;28;20391;-74
2023/12/22 09:36:33;;;;;;;;;;;11.40;95.00;;;;;;5094712;28;20009;-75
2023/12/22 09:38:58;;;;;;;;;;;11.40;95.00;;;;;;5094795;28;19967;-75
2023/12/22 09:41:24;;;;;;;;;;;11.40;95.00;;;;;;5113949;28;19911;-75
2023/12/22 09:43:50;;;;;;;;;;;11.40;95.00;;;;;;5095906;28;19915;-75
2023/12/22 09:46:17;;;;;;;;;;;11.40;95.00;;;;;;5092024;28;19915;-74
2023/12/22 09:48:45;;;;;;;;;;;11.40;95.00;;;;;;5110997;28;19950;-74
2023/12/22 09:51:10;;;;;;;;;;;11.50;95.00;;;;;;5094653;28;19908;-74
2023/12/22 09:53:38;;;;;;;;;;;11.50;95.00;;;;;;5112773;28;19920;-75
2023/12/22 09:56:03;;;;;;;;;;;11.50;95.00;;;;;;5112056;28;20006;-74
2023/12/22 09:58:29;;;;;;;;;;;11.50;95.00;;;;;;5094132;28;19991;-74
2023/12/22 10:00:56;;;;;;;;;;;11.50;95.00;;;;;;5093879;28;19987;-73
2023/12/22 10:03:24;;;;;;;;;;;11.60;95.00;;;;;;5076865;28;19922;-75
2023/12/22 10:05:49;;;;;;;;;;;11.60;95.00;;;;;;5110990;28;19948;-75
2023/12/22 10:08:15;;;;;;;;;;;11.60;95.00;;;;;;5095300;28;19908;-74
2023/12/22 10:10:41;;;;;;;;;;;11.60;95.00;;;;;;5113125;28;20296;-77
2023/12/22 10:13:09;;;;;;;;;;;11.60;95.00;;;;;;5094659;28;20351;-75
2023/12/22 10:15:42;;;;;;;;;;;11.60;95.00;;;;;;5096454;28;19904;-78
2023/12/22 10:18:07;;;;;;;;;;;11.70;95.00;;;;;;5095330;28;19998;-77
2023/12/22 10:20:34;;;;;;;;;;;11.70;95.00;;;;;;5114051;28;20002;-76
2023/12/22 10:23:00;;;;;;;;;;;11.70;95.00;;;;;;5113870;28;20591;-77
2023/12/22 10:25:32;;;;;;;;;;;11.70;95.00;;;;;;5094474;28;19915;-73
2023/12/22 10:27:58;;;;;;;;;;;11.80;95.00;;;;;;5112322;28;20052;-73
2023/12/22 10:30:27;;;;;;;;;;;11.80;95.00;;;;;;5112693;28;20062;-73
2023/12/22 10:32:53;;;;;;;;;;;11.80;95.00;;;;;;5111788;28;20260;-72
2023/12/22 10:35:22;;;;;;;;;;;11.80;95.00;;;;;;5111551;28;19915;-72
2023/12/22 10:37:47;;;;;;;;;;;11.90;95.10;;;;;;5093150;28;20339;-73
2023/12/22 10:40:13;;;;;;;;;;;12.00;95.10;;;;;;5111540;28;19910;-73
2023/12/22 10:42:40;;;;;;;;;;;12.00;95.10;;;;;;5111150;28;19998;-74
2023/12/22 10:45:06;;;;;;;;;;;12.10;95.10;;;;;;5112346;28;19910;-74
2023/12/22 10:47:32;;;;;;;;;;;12.20;95.10;;;;;;5093656;28;19961;-74
2023/12/22 10:50:01;;;;;;;;;;;12.30;95.10;;;;;;5093346;28;19908;-75
2023/12/22 10:52:26;;;;;;;;;;;12.30;95.00;;;;;;5093157;28;19910;-74
2023/12/22 10:54:52;;;;;;;;;;;12.30;94.90;;;;;;5111507;28;19998;-75
2023/12/22 10:57:21;;;;;;;;;;;12.30;94.90;;;;;;5112395;28;19908;-76
2023/12/22 10:59:47;;;;;;;;;;;12.30;94.90;;;;;;5112005;28;19907;-73
2023/12/22 11:02:19;;;;;;;;;;;12.20;94.90;;;;;;5093883;28;20006;-73
2023/12/22 11:05:08;;;;;;;;;;;12.20;94.90;;;;;;5093791;28;19908;-74
2023/12/22 11:07:35;;;;;;;;;;;12.10;94.90;;;;;;5111916;28;20236;-76
2023/12/22 11:10:07;;;;;;;;;;;12.10;94.90;;;;;;5092845;28;19977;-70
2023/12/22 11:12:36;;;;;;;;;;;12.20;95.00;;;;;;5094636;28;19946;-74
2023/12/22 11:15:05;;;;;;;;;;;12.20;95.00;;;;;;5072949;28;19908;-73
2023/12/22 11:17:32;;;;;;;;;;;12.20;95.00;;;;;;5091189;28;19904;-74
2023/12/22 11:19:58;;;;;;;;;;;12.20;95.00;;;;;;5095259;28;19908;-73
2023/12/22 11:22:24;;;;;;;;;;;12.30;95.00;;;;;;5074905;28;19910;-73
2023/12/22 11:24:49;;;;;;;;;;;12.20;95.00;;;;;;5091390;28;19908;-70
2023/12/22 11:27:19;;;;;;;;;;;12.20;94.90;;;;;;5091243;28;19916;-72
2023/12/22 11:29:51;;;;;;;;;;;12.20;94.90;;;;;;5092359;28;19927;-73
2023/12/22 11:32:18;;;;;;;;;;;12.20;95.00;;;;;;5096254;28;19919;-74
2023/12/22 11:34:44;;;;;;;;;;;12.20;95.00;;;;;;5091839;28;19952;-76
2023/12/22 11:37:11;;;;;;;;;;;12.20;94.90;;;;;;5091995;28;19908;-73
2023/12/22 11:39:37;;;;;;;;;;;12.30;95.00;;;;;;5099892;28;19911;-74
2023/12/22 11:42:04;;;;;;;;;;;12.30;95.00;;;;;;5072861;28;19904;-75
2023/12/22 11:44:30;;;;;;;;;;;12.30;95.00;;;;;;5104936;28;20319;-74
2023/12/22 11:47:06;;;;;;;;;;;12.30;95.00;;;;;;5115000;28;20004;-74
2023/12/22 11:49:33;;;;;;;;;;;12.40;95.00;;;;;;5111693;28;19908;-74
2023/12/22 11:51:59;;;;;;;;;;;12.50;95.10;;;;;;5108048;28;20272;-75
2023/12/22 11:54:43;;;;;;;;;;;12.50;95.10;;;;;;5094012;28;19974;-74
2023/12/22 11:57:32;;;;;;;;;;;12.60;95.10;;;;;;5076125;28;20014;-74
2023/12/22 12:00:06;;;;;;;;;;;12.70;95.00;;;;;;5094152;28;19904;-75
2023/12/22 12:02:32;;;;;;;;;;;12.80;95.00;;;;;;5095777;28;20000;-76
2023/12/22 12:05:02;;;;;;;;;;;12.80;95.00;;;;;;5095129;28;19952;-76
2023/12/22 12:07:40;;;;;;;;;;;12.80;94.90;;;;;;5094925;28;20279;-74
2023/12/22 12:10:06;;;;;;;;;;;12.80;94.90;;;;;;5095483;28;19914;-74
2023/12/22 12:12:34;;;;;;;;;;;12.80;95.20;;;;;;5096053;28;19923;-73
2023/12/22 12:15:06;;;;;;;;;;;12.80;95.10;;;;;;5114239;28;20359;-82
2023/12/22 12:17:32;;;;;;;;;;;12.90;95.10;;;;;;5114897;28;19912;-75
2023/12/22 12:19:59;;;;;;;;;;;13.00;95.10;;;;;;5109134;28;19992;-77
2023/12/22 12:22:26;;;;;;;;;;;13.10;95.20;;;;;;5095689;28;20333;-74
2023/12/22 12:24:52;;;;;;;;;;;13.30;95.30;;;;;;5095806;28;20398;-74
2023/12/22 12:27:20;;;;;;;;;;;13.50;95.20;;;;;;5113839;28;19919;-76
2023/12/22 12:29:46;;;;;;;;;;;13.50;95.00;;;;;;5094194;28;19961;-73
2023/12/22 12:32:14;;;;;;;;;;;13.50;94.90;;;;;;5113971;28;19911;-73
2023/12/22 12:34:42;;;;;;;;;;;13.40;94.90;;;;;;5093599;28;19904;-73
2023/12/22 12:37:08;;;;;;;;;;;13.40;94.90;;;;;;5105715;28;19947;-74
2023/12/22 12:39:36;;;;;;;;;;;13.30;94.90;;;;;;5103926;28;19967;-75
2023/12/22 12:42:08;;;;;;;;;;;13.30;94.90;;;;;;5076275;28;19908;-72
2023/12/22 12:44:35;;;;;;;;;;;13.20;95.00;;;;;;5094108;28;19904;-73
2023/12/22 12:47:10;;;;;;;;;;;13.20;95.00;;;;;;5076245;28;19973;-74
2023/12/22 12:49:36;;;;;;;;;;;13.20;95.00;;;;;;5095188;28;19951;-78
2023/12/22 12:52:02;;;;;;;;;;;13.30;95.00;;;;;;5076068;28;19955;-77
2023/12/22 12:54:27;;;;;;;;;;;13.20;95.00;;;;;;5094336;28;19908;-82
2023/12/22 12:56:53;;;;;;;;;;;13.20;94.90;;;;;;5075500;28;19904;-75
2023/12/22 12:59:19;;;;;;;;;;;13.20;94.90;;;;;;5094108;28;19943;-74
2023/12/22 13:01:46;;;;;;;;;;;13.10;94.90;;;;;;5094031;28;19980;-76
2023/12/22 13:04:12;;;;;;;;;;;13.10;94.90;;;;;;5093533;28;19974;-74
2023/12/22 13:06:45;;;;;;;;;;;13.00;94.90;;;;;;5084075;28;20236;-73
2023/12/22 13:09:10;;;;;;;;;;;13.00;94.90;;;;;;5095562;28;19956;-75
2023/12/22 13:11:36;;;;;;;;;;;12.90;94.90;;;;;;5082325;28;20001;-73
2023/12/22 13:14:02;;;;;;;;;;;12.90;94.90;;;;;;5093517;28;19908;-74
2023/12/22 13:16:31;;;;;;;;;;;12.80;94.80;;;;;;5093699;28;20572;-73
2023/12/22 13:18:57;;;;;;;;;;;12.80;94.90;;;;;;5093723;28;19920;-74
2023/12/22 13:21:23;;;;;;;;;;;12.80;94.90;;;;;;5057675;28;20306;-76
2023/12/22 13:24:07;;;;;;;;;;;12.80;95.00;;;;;;5092885;28;19923;-73
2023/12/22 13:26:33;;;;;;;;;;;12.80;94.90;;;;;;5113386;28;19931;-74
2023/12/22 13:28:59;;;;;;;;;;;12.80;94.90;;;;;;5113604;28;19907;-74
2023/12/22 13:31:25;;;;;;;;;;;12.70;94.90;;;;;;5113482;28;20390;-74
2023/12/22 13:33:51;;;;;;;;;;;12.70;94.90;;;;;;5103934;28;19904;-73
2023/12/22 13:36:16;;;;;;;;;;;12.70;95.00;;;;;;5113551;28;19958;-70
2023/12/22 13:38:46;;;;;;;;;;;12.70;95.00;;;;;;5105113;28;19987;-76
2023/12/22 13:41:12;;;;;;;;;;;12.80;95.00;;;;;;5093472;28;19969;-74
2023/12/22 13:43:38;;;;;;;;;;;12.80;95.00;;;;;;5094150;28;19912;-74
2023/12/22 13:46:03;;;;;;;;;;;12.80;95.00;;;;;;5113087;28;19976;-74
2023/12/22 13:48:30;;;;;;;;;;;12.90;95.00;;;;;;5112278;28;20030;-73
2023/12/22 13:50:58;;;;;;;;;;;12.90;95.00;;;;;;5112438;28;19907;-74
2023/12/22 13:53:24;;;;;;;;;;;12.90;94.90;;;;;;5109355;28;19955;-74
2023/12/22 13:55:55;;;;;;;;;;;12.90;94.90;;;;;;5091677;28;20031;-75
2023/12/22 13:58:21;;;;;;;;;;;12.90;94.90;;;;;;5074517;28;19904;-75
2023/12/22 14:00:47;;;;;;;;;;;12.80;94.80;;;;;;5093660;28;19904;-75
2023/12/22 14:03:12;;;;;;;;;;;12.80;94.80;;;;;;5074503;28;19912;-74
2023/12/22 14:05:38;;;;;;;;;;;12.70;94.80;;;;;;5073918;28;19908;-73
2023/12/22 14:08:04;;;;;;;;;;;12.70;94.80;;;;;;5057106;28;19942;-72
2023/12/22 14:10:29;;;;;;;;;;;12.70;94.90;;;;;;5092340;28;19947;-74
2023/12/22 14:12:55;;;;;;;;;;;12.70;94.90;;;;;;5073582;28;19917;-73